sensor_id;sensor_type;location;lat;lon;timestamp;pressure;altitude;pressure_sealevel;temperature;humidity
58739;BME280;44512;53.046;18.604;2023-02-25T00:04:26;99312.10;;;4.73;64.72
58739;BME280;44512;53.046;18.604;2023-02-25T00:14:52;99293.73;;;4.69;64.90
58739;BME280;44512;53.046;18.604;2023-02-25T00:25:20;99299.29;;;4.68;65.08
58739;BME280;44512;53.046;18.604;2023-02-25T00:35:49;99283.59;;;4.65;65.37
58739;BME280;44512;53.046;18.604;2023-02-25T00:46:18;99265.86;;;4.64;65.64
58739;BME280;44512;53.046;18.604;2023-02-25T00:56:46;99252.91;;;4.67;65.77
58739;BME280;44512;53.046;18.604;2023-02-25T01:07:15;99227.30;;;4.65;65.93
58739;BME280;44512;53.046;18.604;2023-02-25T01:17:43;99229.23;;;4.71;66.17
58739;BME280;44512;53.046;18.604;2023-02-25T01:28:11;99223.42;;;4.67;66.48
58739;BME280;44512;53.046;18.604;2023-02-25T01:38:39;99207.73;;;4.64;66.69
58739;BME280;44512;53.046;18.604;2023-02-25T01:49:16;99193.49;;;4.64;66.85
58739;BME280;44512;53.046;18.604;2023-02-25T01:59:38;99189.79;;;4.65;67.04
58739;BME280;44512;53.046;18.604;2023-02-25T02:10:05;99179.27;;;4.63;67.21
58739;BME280;44512;53.046;18.604;2023-02-25T02:41:36;99130.60;;;4.60;67.55
58739;BME280;44512;53.046;18.604;2023-02-25T02:52:02;99122.77;;;4.58;67.64
58739;BME280;44512;53.046;18.604;2023-02-25T03:02:30;99117.84;;;4.55;67.87
58739;BME280;44512;53.046;18.604;2023-02-25T03:12:55;99109.15;;;4.53;67.95
58739;BME280;44512;53.046;18.604;2023-02-25T03:23:28;99096.78;;;4.52;68.04
58739;BME280;44512;53.046;18.604;2023-02-25T03:34:02;99103.78;;;4.53;68.15
58739;BME280;44512;53.046;18.604;2023-02-25T03:44:26;99098.65;;;4.52;68.48
58739;BME280;44512;53.046;18.604;2023-02-25T03:54:50;99093.91;;;4.54;68.70
58739;BME280;44512;53.046;18.604;2023-02-25T04:05:19;99097.61;;;4.53;68.88
58739;BME280;44512;53.046;18.604;2023-02-25T04:15:46;99090.59;;;4.45;69.13
58739;BME280;44512;53.046;18.604;2023-02-25T04:26:14;99084.81;;;4.48;69.62
58739;BME280;44512;53.046;18.604;2023-02-25T04:36:42;99080.48;;;4.47;70.00
58739;BME280;44512;53.046;18.604;2023-02-25T04:47:11;99062.12;;;4.44;70.40
58739;BME280;44512;53.046;18.604;2023-02-25T04:57:39;99059.86;;;4.41;70.76
58739;BME280;44512;53.046;18.604;2023-02-25T05:08:07;99045.44;;;4.42;70.96
58739;BME280;44512;53.046;18.604;2023-02-25T05:18:40;99042.36;;;4.45;70.98
58739;BME280;44512;53.046;18.604;2023-02-25T05:29:05;99029.57;;;4.47;70.94
58739;BME280;44512;53.046;18.604;2023-02-25T05:39:33;99032.87;;;4.49;70.87
58739;BME280;44512;53.046;18.604;2023-02-25T05:50:01;99032.87;;;4.49;70.85
58739;BME280;44512;53.046;18.604;2023-02-25T06:00:29;99034.54;;;4.50;70.94
58739;BME280;44512;53.046;18.604;2023-02-25T06:10:58;99032.91;;;4.56;70.98
58739;BME280;44512;53.046;18.604;2023-02-25T06:21:27;99035.38;;;4.57;71.07
58739;BME280;44512;53.046;18.604;2023-02-25T06:31:55;99037.02;;;4.58;71.28
58739;BME280;44512;53.046;18.604;2023-02-25T06:42:23;99044.02;;;4.59;71.47
58739;BME280;44512;53.046;18.604;2023-02-25T06:52:52;99043.02;;;4.60;71.52
58739;BME280;44512;53.046;18.604;2023-02-25T07:03:20;99051.88;;;4.61;71.61
58739;BME280;44512;53.046;18.604;2023-02-25T07:13:49;99041.98;;;4.61;71.70
58739;BME280;44512;53.046;18.604;2023-02-25T07:24:17;99041.56;;;4.64;71.85
58739;BME280;44512;53.046;18.604;2023-02-25T07:34:45;99045.70;;;4.67;71.91
58739;BME280;44512;53.046;18.604;2023-02-25T07:45:14;99051.49;;;4.70;72.00
58739;BME280;44512;53.046;18.604;2023-02-25T07:55:43;99060.54;;;4.69;71.87
58739;BME280;44512;53.046;18.604;2023-02-25T08:06:11;99060.54;;;4.69;71.92
58739;BME280;44512;53.046;18.604;2023-02-25T08:16:39;99047.78;;;4.72;71.77
58739;BME280;44512;53.046;18.604;2023-02-25T08:27:07;99059.55;;;4.77;71.89
58739;BME280;44512;53.046;18.604;2023-02-25T08:37:36;99059.15;;;4.87;72.01
58739;BME280;44512;53.046;18.604;2023-02-25T08:48:04;99063.47;;;4.94;71.98
58739;BME280;44512;53.046;18.604;2023-02-25T08:58:33;99077.91;;;5.00;71.79
58739;BME280;44512;53.046;18.604;2023-02-25T09:09:01;99085.36;;;5.05;71.89
58739;BME280;44512;53.046;18.604;2023-02-25T09:19:32;99094.86;;;5.07;71.85
58739;BME280;44512;53.046;18.604;2023-02-25T09:34:38;99098.59;;;5.13;71.41
58739;BME280;44512;53.046;18.604;2023-02-25T09:44:46;99117.54;;;5.11;71.18
58739;BME280;44512;53.046;18.604;2023-02-25T09:54:53;99116.92;;;5.03;70.15
58739;BME280;44512;53.046;18.604;2023-02-25T10:15:19;99146.04;;;5.19;69.89
58739;BME280;44512;53.046;18.604;2023-02-25T10:25:27;99154.30;;;5.24;69.79
58739;BME280;44512;53.046;18.604;2023-02-25T10:35:35;99161.73;;;5.29;69.71
58739;BME280;44512;53.046;18.604;2023-02-25T10:45:39;99175.58;;;5.39;69.38
58739;BME280;44512;53.046;18.604;2023-02-25T10:55:46;99189.39;;;5.42;69.17
58739;BME280;44512;53.046;18.604;2023-02-25T11:16:09;99200.12;;;5.36;69.22
58739;BME280;44512;53.046;18.604;2023-02-25T11:26:26;99220.37;;;5.38;69.14
58739;BME280;44512;53.046;18.604;2023-02-25T11:36:29;99214.79;;;5.40;68.98
58739;BME280;44512;53.046;18.604;2023-02-25T11:46:31;99234.18;;;5.42;69.08
58739;BME280;44512;53.046;18.604;2023-02-25T11:56:40;99244.74;;;5.43;69.30
58739;BME280;44512;53.046;18.604;2023-02-25T14:09:42;99425.95;;;5.39;68.87
58739;BME280;44512;53.046;18.604;2023-02-25T14:30:08;99463.55;;;5.46;69.09
58739;BME280;44512;53.046;18.604;2023-02-25T15:11:04;99571.07;;;5.38;67.30
58739;BME280;44512;53.046;18.604;2023-02-25T15:31:29;99625.30;;;5.33;66.69
58739;BME280;44512;53.046;18.604;2023-02-25T15:42:00;99652.97;;;5.34;66.65
58739;BME280;44512;53.046;18.604;2023-02-25T16:02:43;99696.58;;;5.21;65.64
58739;BME280;44512;53.046;18.604;2023-02-25T16:13:20;99733.71;;;5.17;65.57
58739;BME280;44512;53.046;18.604;2023-02-25T16:23:40;99761.26;;;5.11;65.29
58739;BME280;44512;53.046;18.604;2023-02-25T16:34:19;99787.94;;;4.98;65.05
58739;BME280;44512;53.046;18.604;2023-02-25T16:44:39;99834.92;;;4.94;65.41
58739;BME280;44512;53.046;18.604;2023-02-25T16:55:08;99855.54;;;4.93;65.25
58739;BME280;44512;53.046;18.604;2023-02-25T17:05:36;99871.16;;;4.90;64.84
58739;BME280;44512;53.046;18.604;2023-02-25T17:16:03;99895.02;;;4.85;64.58
58739;BME280;44512;53.046;18.604;2023-02-25T17:26:31;99918.03;;;4.79;64.61
58739;BME280;44512;53.046;18.604;2023-02-25T17:37:02;99935.68;;;4.74;63.73
58739;BME280;44512;53.046;18.604;2023-02-25T17:47:30;99956.65;;;4.70;63.83
58739;BME280;44512;53.046;18.604;2023-02-25T17:58:02;99972.28;;;4.66;63.72
58739;BME280;44512;53.046;18.604;2023-02-25T18:08:29;99982.03;;;4.59;63.77
58739;BME280;44512;53.046;18.604;2023-02-25T18:18:53;100036.85;;;4.57;63.78
58739;BME280;44512;53.046;18.604;2023-02-25T18:29:21;100033.68;;;4.53;63.79
58739;BME280;44512;53.046;18.604;2023-02-25T18:39:49;100061.23;;;4.39;64.41
58739;BME280;44512;53.046;18.604;2023-02-25T18:50:19;100087.07;;;4.32;64.37
58739;BME280;44512;53.046;18.604;2023-02-25T19:00:49;100102.86;;;4.18;64.42
58739;BME280;44512;53.046;18.604;2023-02-25T19:11:18;100122.29;;;4.21;64.33
58739;BME280;44512;53.046;18.604;2023-02-25T19:21:43;100143.23;;;4.17;63.01
58739;BME280;44512;53.046;18.604;2023-02-25T19:32:11;100160.13;;;4.17;61.64
58739;BME280;44512;53.046;18.604;2023-02-25T19:42:41;100193.98;;;4.10;61.16
58739;BME280;44512;53.046;18.604;2023-02-25T19:53:08;100199.67;;;4.07;60.95
58739;BME280;44512;53.046;18.604;2023-02-25T20:03:36;100230.64;;;4.02;60.54
58739;BME280;44512;53.046;18.604;2023-02-25T20:14:05;100244.54;;;3.97;60.29
58739;BME280;44512;53.046;18.604;2023-02-25T20:24:33;100261.11;;;3.92;59.92
58739;BME280;44512;53.046;18.604;2023-02-25T20:35:02;100266.81;;;3.89;59.74
58739;BME280;44512;53.046;18.604;2023-02-25T20:45:30;100281.36;;;3.87;59.48
58739;BME280;44512;53.046;18.604;2023-02-25T20:55:58;100301.47;;;3.83;59.29
58739;BME280;44512;53.046;18.604;2023-02-25T21:06:27;100330.90;;;3.75;59.29
58739;BME280;44512;53.046;18.604;2023-02-25T21:16:55;100323.71;;;3.67;59.42
58739;BME280;44512;53.046;18.604;2023-02-25T21:27:24;100350.96;;;3.62;59.50
58739;BME280;44512;53.046;18.604;2023-02-25T21:37:52;100355.98;;;3.57;59.50
58739;BME280;44512;53.046;18.604;2023-02-25T21:48:22;100369.15;;;3.51;59.54
58739;BME280;44512;53.046;18.604;2023-02-25T21:58:52;100385.06;;;3.52;59.53
58739;BME280;44512;53.046;18.604;2023-02-25T22:09:17;100405.78;;;3.50;59.59
58739;BME280;44512;53.046;18.604;2023-02-25T22:19:45;100402.44;;;3.48;59.78
58739;BME280;44512;53.046;18.604;2023-02-25T22:30:14;100415.46;;;3.43;60.02
58739;BME280;44512;53.046;18.604;2023-02-25T22:40:42;100437.05;;;3.42;60.10
58739;BME280;44512;53.046;18.604;2023-02-25T22:51:12;100462.27;;;3.39;60.33
58739;BME280;44512;53.046;18.604;2023-02-25T23:01:39;100478.62;;;3.36;60.54
58739;BME280;44512;53.046;18.604;2023-02-25T23:12:07;100488.66;;;3.34;60.84
58739;BME280;44512;53.046;18.604;2023-02-25T23:22:36;100516.24;;;3.34;61.21
58739;BME280;44512;53.046;18.604;2023-02-25T23:33:05;100540.49;;;3.33;61.45
58739;BME280;44512;53.046;18.604;2023-02-25T23:43:33;100537.45;;;3.28;61.63
58739;BME280;44512;53.046;18.604;2023-02-25T23:54:04;100574.43;;;3.32;61.69
